Time;durP1;ratioP1;P1;durP2;ratioP2;P2;SDS_P1;SDS_P2;PMS_P1;PMS_P2;Temp;Humidity;BMP_temperature;BMP_pressure;BME280_temperature;BME280_humidity;BME280_pressure;Samples;Min_cycle;Max_cycle;Signal;HPM_P1;HPM_P2
2021/04/01 00:00:15;;;;;;;7.43;2.03;;;8.80;99.90;;;;;;5028416;27;20678;-70
2021/04/01 00:02:46;;;;;;;4.27;2.47;;;8.90;99.90;;;;;;5036013;27;20592;-69
2021/04/01 00:05:14;;;;;;;3.73;2.30;;;8.80;99.90;;;;;;5052271;27;20185;-70
2021/04/01 00:07:40;;;;;;;7.43;2.80;;;8.90;99.90;;;;;;5026843;27;20471;-70
2021/04/01 00:10:12;;;;;;;8.87;2.40;;;8.90;99.90;;;;;;5033556;27;20234;-70
2021/04/01 00:12:39;;;;;;;5.37;2.60;;;9.00;99.90;;;;;;5040528;27;20192;-70
2021/04/01 00:15:12;;;;;;;12.37;2.43;;;8.90;99.90;;;;;;5049026;27;20181;-69
2021/04/01 00:17:43;;;;;;;5.33;2.17;;;8.90;99.90;;;;;;5044853;27;20194;-69
2021/04/01 00:20:14;;;;;;;5.17;2.37;;;8.90;99.90;;;;;;5028529;27;20196;-69
2021/04/01 00:22:41;;;;;;;7.87;2.50;;;8.70;99.90;;;;;;5022313;27;20203;-69
2021/04/01 00:25:11;;;;;;;6.57;2.53;;;8.60;99.90;;;;;;5034382;27;20207;-69
2021/04/01 00:27:38;;;;;;;6.70;2.70;;;8.60;99.90;;;;;;5013911;28;20219;-70
2021/04/01 00:30:07;;;;;;;4.20;2.40;;;8.50;99.90;;;;;;5016432;28;20201;-69
2021/04/01 00:32:34;;;;;;;6.37;3.10;;;8.50;99.90;;;;;;5022323;28;20188;-69
2021/04/01 00:35:00;;;;;;;5.77;2.70;;;8.50;99.90;;;;;;5028001;28;20268;-69
2021/04/01 00:37:27;;;;;;;5.77;2.23;;;8.50;99.90;;;;;;5020580;27;20192;-68
2021/04/01 00:39:53;;;;;;;6.93;2.47;;;8.60;99.90;;;;;;5025530;27;20201;-68
2021/04/01 00:42:20;;;;;;;11.13;3.33;;;8.60;99.90;;;;;;5021275;28;20220;-68
2021/04/01 00:44:46;;;;;;;9.60;2.70;;;8.40;99.90;;;;;;5020986;28;20195;-68
2021/04/01 00:47:12;;;;;;;4.67;2.60;;;8.50;99.90;;;;;;5017326;28;20188;-68
2021/04/01 00:49:40;;;;;;;5.70;2.60;;;8.40;99.90;;;;;;5022252;28;20276;-68
2021/04/01 00:52:08;;;;;;;4.30;2.27;;;8.40;99.90;;;;;;5027217;27;20195;-69
2021/04/01 00:54:35;;;;;;;5.57;2.57;;;8.30;99.90;;;;;;5017633;28;20192;-68
2021/04/01 00:57:02;;;;;;;5.83;2.47;;;8.30;99.90;;;;;;5024949;27;20271;-68
2021/04/01 00:59:30;;;;;;;6.63;2.80;;;8.20;99.90;;;;;;5011447;28;20703;-69
2021/04/01 01:02:02;;;;;;;8.67;3.07;;;8.20;99.90;;;;;;5019451;28;20190;-69
2021/04/01 01:04:31;;;;;;;4.67;2.70;;;8.20;99.90;;;;;;5022476;28;20227;-69
2021/04/01 01:06:57;;;;;;;6.57;2.50;;;8.30;99.90;;;;;;5023506;28;20191;-68
2021/04/01 01:09:24;;;;;;;5.13;2.57;;;8.20;99.90;;;;;;5023284;27;20216;-69
2021/04/01 01:11:50;;;;;;;6.23;2.50;;;8.10;99.90;;;;;;5025544;28;20185;-68
2021/04/01 01:14:16;;;;;;;4.77;2.50;;;8.10;99.90;;;;;;5015937;28;20240;-68
2021/04/01 01:16:43;;;;;;;6.40;2.30;;;8.10;99.90;;;;;;5023244;28;20194;-68
2021/04/01 01:19:12;;;;;;;9.33;2.63;;;8.00;99.90;;;;;;5019698;28;20192;-68
2021/04/01 01:21:38;;;;;;;7.70;2.70;;;7.90;99.90;;;;;;5025522;28;20203;-69
2021/04/01 01:24:17;;;;;;;8.50;2.57;;;7.90;99.90;;;;;;5006281;28;20709;-68
2021/04/01 01:26:46;;;;;;;7.63;2.90;;;8.10;99.90;;;;;;5021053;28;20216;-69
2021/04/01 01:29:13;;;;;;;6.23;2.70;;;8.20;99.90;;;;;;4998688;27;20219;-68
2021/04/01 01:31:50;;;;;;;8.43;2.83;;;8.10;99.90;;;;;;5045242;27;20544;-68
2021/04/01 01:34:18;;;;;;;6.20;2.60;;;8.10;99.90;;;;;;5018408;28;20227;-68
2021/04/01 01:36:46;;;;;;;8.90;2.93;;;8.00;99.90;;;;;;5046287;27;20184;-69
2021/04/01 01:39:13;;;;;;;11.20;3.00;;;8.00;99.90;;;;;;5016925;27;20673;-68
2021/04/01 01:41:40;;;;;;;5.33;2.63;;;8.10;99.90;;;;;;5052863;27;20204;-68
2021/04/01 01:44:06;;;;;;;7.83;2.90;;;8.20;99.90;;;;;;5032841;27;20185;-69
2021/04/01 01:46:33;;;;;;;7.67;2.90;;;8.20;99.90;;;;;;5022777;27;20279;-69
2021/04/01 01:49:00;;;;;;;5.67;2.80;;;8.30;99.90;;;;;;5065363;27;20215;-69
2021/04/01 01:51:28;;;;;;;9.40;2.83;;;8.20;99.90;;;;;;5042300;27;20191;-69
2021/04/01 01:53:55;;;;;;;7.83;3.10;;;8.30;99.90;;;;;;5026081;27;20188;-69
2021/04/01 01:56:26;;;;;;;6.93;3.00;;;8.20;99.90;;;;;;5049433;27;20244;-69
2021/04/01 01:58:58;;;;;;;6.03;2.83;;;8.40;99.90;;;;;;5017929;28;20306;-69
2021/04/01 02:01:25;;;;;;;7.07;2.93;;;8.50;99.90;;;;;;5034225;27;20245;-69
2021/04/01 02:03:53;;;;;;;6.00;2.90;;;8.50;99.90;;;;;;5040797;27;20195;-69
2021/04/01 02:06:21;;;;;;;7.40;3.03;;;8.70;99.90;;;;;;5047651;27;20195;-69
2021/04/01 02:08:48;;;;;;;6.73;2.80;;;8.70;99.90;;;;;;5038947;27;20188;-69
2021/04/01 02:11:17;;;;;;;7.30;3.00;;;8.80;99.90;;;;;;5024793;27;20284;-69
2021/04/01 02:13:44;;;;;;;6.40;3.17;;;8.90;99.90;;;;;;5024150;28;20283;-69
2021/04/01 02:16:12;;;;;;;5.03;3.00;;;8.90;99.90;;;;;;5026918;28;20181;-69
2021/04/01 02:18:38;;;;;;;6.90;3.30;;;9.00;99.90;;;;;;5055791;27;20184;-69
2021/04/01 02:21:08;;;;;;;11.57;3.53;;;9.00;99.90;;;;;;5066832;27;20198;-69
2021/04/01 02:23:35;;;;;;;6.63;3.17;;;8.90;99.90;;;;;;5056975;27;20267;-69
2021/04/01 02:26:04;;;;;;;7.70;3.40;;;8.80;99.90;;;;;;5042667;27;20229;-69
2021/04/01 02:28:33;;;;;;;10.90;3.20;;;8.70;99.90;;;;;;5043380;28;20865;-69
2021/04/01 02:31:06;;;;;;;6.23;3.30;;;8.60;99.90;;;;;;5018270;28;20192;-69
2021/04/01 02:33:36;;;;;;;7.87;3.00;;;8.60;99.90;;;;;;5037595;28;20188;-68
2021/04/01 02:36:05;;;;;;;4.90;2.60;;;8.70;99.90;;;;;;5046677;28;20176;-68
2021/04/01 02:38:32;;;;;;;4.57;2.77;;;8.60;99.90;;;;;;5045228;28;20200;-68
2021/04/01 02:40:59;;;;;;;6.47;2.80;;;8.90;99.90;;;;;;5025945;27;21512;-68
2021/04/01 02:45:56;;;;;;;7.50;2.53;;;8.90;99.90;;;;;;5019476;28;20207;-68
2021/04/01 02:48:22;;;;;;;5.90;2.40;;;8.70;99.90;;;;;;5020541;28;20195;-69
2021/04/01 02:50:48;;;;;;;6.33;3.03;;;8.60;99.90;;;;;;5018529;28;20317;-68
2021/04/01 02:53:15;;;;;;;7.57;2.97;;;8.50;99.90;;;;;;5015371;28;20247;-68
2021/04/01 02:55:41;;;;;;;8.70;2.33;;;8.40;99.90;;;;;;5001631;28;20188;-69
2021/04/01 02:58:07;;;;;;;9.83;2.50;;;8.70;99.90;;;;;;5017245;28;20743;-69
2021/04/01 03:00:36;;;;;;;13.40;3.07;;;8.80;99.90;;;;;;5029170;28;20196;-69
2021/04/01 03:05:34;;;;;;;5.80;2.63;;;8.90;99.90;;;;;;5023125;28;20192;-69
2021/04/01 03:08:00;;;;;;;7.73;2.40;;;8.90;99.90;;;;;;5022367;28;20855;-69
2021/04/01 03:10:27;;;;;;;7.83;2.13;;;9.00;99.90;;;;;;5018266;28;20209;-69
2021/04/01 03:12:53;;;;;;;7.33;2.33;;;9.10;99.90;;;;;;5028568;28;20211;-69
2021/04/01 03:15:19;;;;;;;6.23;2.30;;;9.10;99.90;;;;;;5030003;27;20271;-69
2021/04/01 03:17:46;;;;;;;7.60;2.60;;;8.80;99.90;;;;;;5026981;28;20779;-69
2021/04/01 03:20:13;;;;;;;10.63;2.70;;;8.80;99.90;;;;;;5023165;28;20196;-68
2021/04/01 03:22:40;;;;;;;8.00;2.23;;;8.70;99.90;;;;;;5013315;28;20916;-67
2021/04/01 03:25:10;;;;;;;6.27;2.30;;;8.70;99.90;;;;;;5028369;28;20238;-68
2021/04/01 03:27:39;;;;;;;3.57;2.33;;;9.00;99.90;;;;;;5024595;28;20204;-68
2021/04/01 03:30:11;;;;;;;6.63;2.20;;;8.90;99.90;;;;;;5104987;27;20572;-69
2021/04/01 03:32:44;;;;;;;5.67;2.03;;;8.70;99.90;;;;;;5013588;28;20241;-69
2021/04/01 03:35:18;;;;;;;6.00;1.90;;;8.30;99.90;;;;;;5004027;28;20244;-69
2021/04/01 03:37:47;;;;;;;4.10;1.83;;;8.00;99.90;;;;;;5029722;28;20221;-69
2021/04/01 03:40:14;;;;;;;5.33;1.90;;;8.10;99.90;;;;;;5021201;28;20271;-69
2021/04/01 03:42:40;;;;;;;6.20;1.93;;;8.10;99.90;;;;;;5017133;28;20184;-69
2021/04/01 03:45:11;;;;;;;4.23;2.10;;;8.20;99.90;;;;;;5024323;27;20216;-69
2021/04/01 03:47:39;;;;;;;7.40;2.40;;;8.00;99.90;;;;;;5020489;28;20200;-69
2021/04/01 03:50:08;;;;;;;4.60;2.20;;;7.90;99.90;;;;;;5023941;28;20265;-69
2021/04/01 03:52:37;;;;;;;3.77;2.00;;;8.00;99.90;;;;;;5023849;28;20904;-69
2021/04/01 03:57:55;;;;;;;3.90;2.10;;;7.90;99.90;;;;;;5024951;28;20647;-69
2021/04/01 04:00:42;;;;;;;4.97;2.50;;;7.90;99.90;;;;;;5021478;28;20198;-69
2021/04/01 04:03:33;;;;;;;5.83;2.07;;;8.00;99.90;;;;;;5101210;27;20224;-69
2021/04/01 04:09:07;;;;;;;5.07;2.33;;;8.00;99.90;;;;;;5017408;28;20196;-68
2021/04/01 04:16:30;;;;;;;4.20;2.13;;;8.10;99.90;;;;;;5028694;27;20664;-68
2021/04/01 04:18:56;;;;;;;4.60;2.40;;;8.20;99.90;;;;;;5021749;28;20181;-68
2021/04/01 04:21:23;;;;;;;4.20;2.20;;;8.20;99.90;;;;;;5003482;28;20556;-68
2021/04/01 04:23:50;;;;;;;6.53;2.17;;;8.30;99.90;;;;;;5011952;28;20184;-67
2021/04/01 04:26:17;;;;;;;4.20;1.70;;;8.20;99.90;;;;;;5018947;28;20189;-69
2021/04/01 04:28:44;;;;;;;4.40;2.10;;;8.30;99.90;;;;;;5017417;28;20563;-69
2021/04/01 04:31:11;;;;;;;6.47;1.83;;;8.30;99.90;;;;;;5021902;27;20200;-68
2021/04/01 04:33:38;;;;;;;6.07;2.00;;;8.30;99.90;;;;;;5011916;28;20189;-68
2021/04/01 04:36:05;;;;;;;6.67;2.07;;;8.40;99.90;;;;;;5003098;28;20180;-69
2021/04/01 04:38:31;;;;;;;4.93;1.70;;;8.50;99.90;;;;;;5020422;28;20199;-67
2021/04/01 04:40:58;;;;;;;5.33;1.97;;;8.60;99.90;;;;;;5015672;28;20216;-68
2021/04/01 04:43:28;;;;;;;9.93;1.90;;;8.70;99.90;;;;;;5015746;28;20283;-67
2021/04/01 04:45:56;;;;;;;5.47;2.00;;;8.80;99.90;;;;;;5021490;28;20993;-67
2021/04/01 04:48:23;;;;;;;7.13;2.00;;;8.80;99.90;;;;;;5018611;28;20189;-68
2021/04/01 04:50:50;;;;;;;4.20;1.80;;;8.90;99.90;;;;;;5021334;27;20216;-68
2021/04/01 04:53:16;;;;;;;4.80;1.70;;;8.90;99.90;;;;;;5032068;28;20189;-68
2021/04/01 05:01:03;;;;;;;7.83;2.10;;;9.00;99.90;;;;;;5020170;27;20674;-69
2021/04/01 05:06:49;;;;;;;6.07;1.97;;;9.10;99.90;;;;;;5015103;28;20189;-68
2021/04/01 05:09:16;;;;;;;3.90;1.70;;;9.30;99.90;;;;;;5019863;28;20242;-69
2021/04/01 05:11:42;;;;;;;5.03;1.63;;;9.80;99.90;;;;;;5017110;28;20741;-69
2021/04/01 05:14:08;;;;;;;9.00;2.20;;;10.00;99.90;;;;;;5018780;28;20192;-69
2021/04/01 05:16:34;;;;;;;6.67;1.63;;;10.00;99.90;;;;;;5029283;28;20567;-69
2021/04/01 05:19:04;;;;;;;5.30;1.97;;;10.00;99.90;;;;;;5017861;28;20700;-68
2021/04/01 05:21:40;;;;;;;8.87;1.80;;;10.00;99.90;;;;;;5027100;27;20888;-69
2021/04/01 05:24:08;;;;;;;5.20;1.77;;;10.20;99.90;;;;;;5024608;28;20212;-69
2021/04/01 05:29:13;;;;;;;3.53;1.70;;;10.30;99.90;;;;;;5016846;28;20608;-67
2021/04/01 05:31:40;;;;;;;7.00;2.00;;;10.30;99.90;;;;;;5023871;28;20221;-68
2021/04/01 05:34:07;;;;;;;6.10;1.83;;;10.70;99.90;;;;;;5016090;28;20306;-69
2021/04/01 05:36:42;;;;;;;6.67;1.80;;;10.80;99.90;;;;;;5018521;28;20196;-69
2021/04/01 05:39:21;;;;;;;8.00;1.40;;;11.00;99.90;;;;;;5020143;28;20224;-70
2021/04/01 05:41:50;;;;;;;9.27;2.17;;;11.10;99.90;;;;;;5020053;28;20184;-69
2021/04/01 05:44:25;;;;;;;4.13;1.80;;;10.90;99.90;;;;;;4997375;28;20213;-69
2021/04/01 05:49:50;;;;;;;6.50;1.90;;;11.00;99.90;;;;;;5018571;28;20239;-69
2021/04/01 06:03:33;;;;;;;7.67;2.30;;;11.40;99.90;;;;;;5020419;27;20188;-68
2021/04/01 06:06:08;;;;;;;7.97;2.20;;;11.50;99.90;;;;;;5034201;27;20188;-68
2021/04/01 06:08:50;;;;;;;9.17;2.00;;;11.60;99.90;;;;;;5045619;27;20180;-68
2021/04/01 06:11:20;;;;;;;4.70;1.90;;;11.70;99.90;;;;;;5038352;27;20200;-69
2021/04/01 06:14:13;;;;;;;7.67;1.90;;;11.70;99.90;;;;;;5047564;27;20181;-68
2021/04/01 06:16:43;;;;;;;6.33;2.10;;;11.70;99.90;;;;;;5035032;27;20719;-67
2021/04/01 06:19:13;;;;;;;13.03;2.20;;;12.00;99.90;;;;;;5040969;27;20275;-68
2021/04/01 06:21:46;;;;;;;7.17;2.20;;;12.00;99.90;;;;;;5027609;27;20184;-67
2021/04/01 06:24:34;;;;;;;6.17;2.33;;;11.90;99.90;;;;;;5013673;28;20180;-70
2021/04/01 06:27:32;;;;;;;12.60;3.27;;;12.10;99.90;;;;;;5042428;27;20195;-69
2021/04/01 06:32:52;;;;;;;12.27;2.90;;;12.50;99.90;;;;;;5029125;27;20621;-68
2021/04/01 06:35:31;;;;;;;4.60;2.20;;;12.60;99.90;;;;;;5039002;27;20187;-70
2021/04/01 06:41:00;;;;;;;4.10;2.20;;;12.60;99.90;;;;;;5028290;28;20200;-68
2021/04/01 06:43:58;;;;;;;6.70;2.20;;;12.70;99.90;;;;;;5017301;28;20184;-67
2021/04/01 06:46:30;;;;;;;6.50;2.33;;;12.70;99.90;;;;;;5039671;28;20182;-68
2021/04/01 06:51:55;;;;;;;6.23;2.23;;;12.40;99.90;;;;;;5037914;28;20196;-68
2021/04/01 06:54:27;;;;;;;5.53;2.13;;;12.40;99.90;;;;;;5025722;28;20188;-67
2021/04/01 06:57:22;;;;;;;7.13;2.27;;;12.30;99.90;;;;;;5028480;28;20183;-71
2021/04/01 07:03:05;;;;;;;3.37;1.73;;;12.20;99.90;;;;;;5005636;28;20284;-68
2021/04/01 07:06:03;;;;;;;5.47;2.00;;;12.00;99.90;;;;;;5038015;27;20199;-71
2021/04/01 07:08:39;;;;;;;3.40;1.97;;;11.70;99.90;;;;;;5019687;28;20198;-68
2021/04/01 07:11:10;;;;;;;5.33;1.97;;;11.30;99.90;;;;;;5032672;28;20640;-69
2021/04/01 07:13:48;;;;;;;6.10;2.20;;;10.90;99.90;;;;;;5024276;28;20509;-69
2021/04/01 07:16:45;;;;;;;4.63;2.10;;;10.80;99.90;;;;;;5030126;28;20182;-69
2021/04/01 07:35:56;;;;;;;7.73;2.50;;;11.90;99.90;;;;;;5019712;28;20184;-71
2021/04/01 07:47:38;;;;;;;6.23;1.83;;;12.30;99.90;;;;;;4998141;27;20197;-69
2021/04/01 07:50:21;;;;;;;5.23;2.03;;;12.40;99.90;;;;;;5007795;28;20777;-70
2021/04/01 07:52:58;;;;;;;7.73;2.37;;;12.40;99.90;;;;;;5036694;27;20237;-71
2021/04/01 07:58:23;;;;;;;4.43;1.70;;;12.60;99.90;;;;;;5116025;27;20192;-69
2021/04/01 08:03:53;;;;;;;6.40;1.90;;;12.50;99.90;;;;;;5106432;27;20184;-70
2021/04/01 08:06:20;;;;;;;2.30;1.50;;;12.30;99.90;;;;;;5025670;27;20195;-68
2021/04/01 08:08:51;;;;;;;5.00;2.10;;;12.00;99.90;;;;;;5017923;27;20238;-71
2021/04/01 08:11:35;;;;;;;3.93;1.50;;;11.90;99.90;;;;;;5013283;27;20189;-68
2021/04/01 08:14:36;;;;;;;5.67;2.00;;;11.70;99.90;;;;;;5039527;28;20231;-68
2021/04/01 08:17:15;;;;;;;6.17;1.77;;;10.50;99.90;;;;;;5041841;27;20260;-67
2021/04/01 08:19:50;;;;;;;5.67;2.13;;;10.00;99.90;;;;;;5039294;27;20195;-67
2021/04/01 08:22:22;;;;;;;4.10;2.00;;;10.00;99.90;;;;;;5033570;27;20216;-67
2021/04/01 08:24:57;;;;;;;7.83;2.43;;;10.00;99.90;;;;;;5020123;28;20188;-67
2021/04/01 08:28:09;;;;;;;4.30;2.30;;;10.20;99.90;;;;;;5044144;27;20246;-67
2021/04/01 08:31:11;;;;;;;7.10;2.40;;;10.00;99.90;;;;;;5024028;27;20934;-68
2021/04/01 08:33:40;;;;;;;11.77;3.37;;;10.20;99.90;;;;;;5035556;27;20205;-71
2021/04/01 08:36:08;;;;;;;7.10;2.80;;;10.40;99.90;;;;;;5032101;27;20192;-69
2021/04/01 08:38:39;;;;;;;5.20;2.60;;;10.30;99.90;;;;;;5036036;27;20192;-70
2021/04/01 08:42:10;;;;;;;9.73;3.00;;;10.30;99.90;;;;;;4992023;27;20315;-70
2021/04/01 08:48:35;;;;;;;8.33;2.90;;;9.90;99.90;;;;;;5025500;27;20659;-67
2021/04/01 08:51:07;;;;;;;7.43;2.40;;;9.70;99.90;;;;;;5005606;27;20234;-69
2021/04/01 08:53:49;;;;;;;9.40;3.27;;;9.70;99.90;;;;;;5009983;28;20204;-68
2021/04/01 08:56:28;;;;;;;6.20;2.80;;;9.70;99.90;;;;;;5030902;27;20287;-68
2021/04/01 08:59:12;;;;;;;11.40;3.37;;;9.80;99.90;;;;;;5027854;27;20201;-68
2021/04/01 09:01:43;;;;;;;4.77;2.83;;;9.90;99.90;;;;;;4987305;28;20199;-68
2021/04/01 09:04:11;;;;;;;9.00;2.83;;;9.90;99.90;;;;;;5040713;27;20197;-68
2021/04/01 09:06:44;;;;;;;6.93;3.00;;;10.00;99.90;;;;;;5044038;27;20798;-68
2021/04/01 09:09:30;;;;;;;7.70;2.93;;;10.10;99.90;;;;;;5054144;27;20209;-68
2021/04/01 09:12:23;;;;;;;6.33;3.20;;;10.30;99.90;;;;;;5025360;27;20188;-68
2021/04/01 09:17:56;;;;;;;5.53;2.03;;;10.40;99.90;;;;;;5051242;27;20187;-68
2021/04/01 09:20:26;;;;;;;2.90;1.70;;;10.40;99.90;;;;;;5036944;27;20474;-68
2021/04/01 09:22:59;;;;;;;2.73;1.77;;;10.40;99.90;;;;;;5033266;27;20486;-71
2021/04/01 09:25:46;;;;;;;3.80;1.90;;;10.50;99.90;;;;;;5057704;27;20200;-69
2021/04/01 09:28:14;;;;;;;7.73;2.33;;;10.40;99.90;;;;;;5029009;27;20193;-69
2021/04/01 09:30:43;;;;;;;6.30;2.30;;;10.50;99.90;;;;;;5060259;27;20287;-68
2021/04/01 09:33:26;;;;;;;5.17;2.53;;;10.60;99.90;;;;;;5053970;27;20200;-69
2021/04/01 09:36:17;;;;;;;8.67;2.80;;;10.90;99.90;;;;;;5036013;27;20683;-70
2021/04/01 09:38:54;;;;;;;6.30;2.30;;;11.30;99.90;;;;;;5049415;27;20200;-68
2021/04/01 09:41:33;;;;;;;9.37;2.50;;;11.50;99.90;;;;;;5044868;27;20294;-68
2021/04/01 09:44:08;;;;;;;11.27;2.80;;;11.60;99.90;;;;;;5029087;28;20390;-68
2021/04/01 09:46:56;;;;;;;5.43;2.47;;;11.50;99.90;;;;;;5031288;27;20194;-68
2021/04/01 09:49:29;;;;;;;10.20;2.60;;;11.50;99.90;;;;;;5042596;27;20259;-68
2021/04/01 09:51:56;;;;;;;4.50;2.33;;;11.50;99.90;;;;;;5058350;27;20208;-70
2021/04/01 09:54:29;;;;;;;6.67;2.70;;;11.60;99.90;;;;;;5039933;27;20608;-70
2021/04/01 09:56:58;;;;;;;7.27;2.37;;;11.80;99.90;;;;;;5054452;27;20701;-68
2021/04/01 09:59:49;;;;;;;5.50;2.10;;;11.70;99.90;;;;;;5022769;27;20188;-68
2021/04/01 10:02:58;;;;;;;8.13;2.40;;;11.50;99.90;;;;;;5110578;27;20189;-70
2021/04/01 10:05:26;;;;;;;10.93;2.83;;;11.40;99.90;;;;;;5036819;27;20232;-71
2021/04/01 10:07:57;;;;;;;4.30;2.60;;;11.30;99.90;;;;;;5051667;27;20188;-67
2021/04/01 10:10:43;;;;;;;5.63;2.70;;;11.00;99.90;;;;;;5058691;27;20200;-67
2021/04/01 10:13:24;;;;;;;9.73;3.30;;;10.70;99.90;;;;;;5026500;27;20192;-68
2021/04/01 10:15:53;;;;;;;9.17;2.93;;;10.80;99.90;;;;;;5045931;27;20207;-67
2021/04/01 10:18:36;;;;;;;3.13;1.97;;;10.80;99.90;;;;;;5049045;27;20199;-67
2021/04/01 10:21:05;;;;;;;7.50;2.70;;;10.70;99.90;;;;;;5026882;27;20287;-66
2021/04/01 10:23:59;;;;;;;7.20;3.00;;;10.70;99.90;;;;;;5055396;27;20208;-68
2021/04/01 10:26:41;;;;;;;5.77;2.60;;;10.80;99.90;;;;;;5049857;27;20196;-68
2021/04/01 10:29:11;;;;;;;6.70;2.67;;;10.90;99.90;;;;;;5032172;27;20196;-68
2021/04/01 10:31:49;;;;;;;5.40;2.57;;;10.90;99.90;;;;;;5028696;27;20245;-68
2021/04/01 10:34:51;;;;;;;5.70;2.10;;;10.90;99.90;;;;;;5039533;28;20269;-67
2021/04/01 10:37:21;;;;;;;5.47;2.20;;;10.90;99.90;;;;;;5057181;28;20191;-68
2021/04/01 10:39:50;;;;;;;5.90;2.07;;;10.90;99.90;;;;;;5016880;28;20208;-68
2021/04/01 10:42:31;;;;;;;6.10;2.17;;;11.00;99.90;;;;;;5049552;28;20552;-68
2021/04/01 10:45:13;;;;;;;6.73;1.70;;;11.00;99.90;;;;;;5041719;28;20278;-68
2021/04/01 10:48:16;;;;;;;4.23;2.13;;;11.00;99.90;;;;;;5021425;28;21463;-68
2021/04/01 10:50:44;;;;;;;5.23;1.80;;;11.10;99.90;;;;;;5049254;28;20208;-68
2021/04/01 10:53:23;;;;;;;2.03;1.40;;;11.00;99.90;;;;;;5047358;27;20292;-68
2021/04/01 10:56:00;;;;;;;4.93;1.60;;;11.00;99.90;;;;;;5037836;28;20207;-68
2021/04/01 10:58:26;;;;;;;3.87;1.70;;;11.10;99.90;;;;;;5040894;28;20194;-68
2021/04/01 11:00:55;;;;;;;3.53;1.47;;;11.20;99.90;;;;;;5030061;28;20238;-67
2021/04/01 11:03:46;;;;;;;3.90;1.40;;;11.00;99.90;;;;;;5053068;28;20196;-68
2021/04/01 11:06:16;;;;;;;1.90;1.50;;;10.90;99.90;;;;;;5032233;28;20216;-68
2021/04/01 11:08:46;;;;;;;3.13;1.60;;;10.90;99.90;;;;;;5039321;28;20196;-68
2021/04/01 11:11:14;;;;;;;2.53;1.50;;;11.00;99.90;;;;;;5050429;27;20219;-68
2021/04/01 11:13:46;;;;;;;3.40;1.70;;;11.00;99.90;;;;;;5028486;28;20197;-69
2021/04/01 11:16:15;;;;;;;2.83;1.60;;;11.00;99.90;;;;;;5033223;27;20288;-69
2021/04/01 11:18:51;;;;;;;3.60;1.60;;;10.80;99.90;;;;;;5044277;27;20196;-69
2021/04/01 11:21:22;;;;;;;3.57;1.80;;;10.80;99.90;;;;;;5021909;27;20221;-68
2021/04/01 11:23:49;;;;;;;2.70;1.60;;;10.70;99.90;;;;;;5054731;27;20643;-68
2021/04/01 11:26:15;;;;;;;2.70;1.60;;;10.70;99.90;;;;;;5053848;27;20188;-68
2021/04/01 11:28:44;;;;;;;7.23;1.53;;;10.70;99.90;;;;;;5061953;27;20215;-68
2021/04/01 11:31:26;;;;;;;2.77;1.77;;;11.00;99.90;;;;;;5062653;27;20311;-68
2021/04/01 11:33:55;;;;;;;6.40;1.93;;;11.40;99.90;;;;;;5047361;27;20193;-69
2021/04/01 11:36:24;;;;;;;3.40;1.93;;;11.60;99.90;;;;;;5032657;27;20201;-68
2021/04/01 11:39:02;;;;;;;2.60;2.00;;;11.80;99.90;;;;;;5045575;27;21586;-69
2021/04/01 11:41:29;;;;;;;4.93;1.90;;;12.10;99.90;;;;;;5047832;27;20281;-68
2021/04/01 11:43:58;;;;;;;4.73;1.90;;;12.20;99.90;;;;;;5035504;27;20556;-68
2021/04/01 11:46:32;;;;;;;3.60;1.70;;;12.00;99.90;;;;;;5000721;28;20412;-68
2021/04/01 11:49:00;;;;;;;4.60;1.70;;;12.10;99.90;;;;;;5020006;28;20867;-69
2021/04/01 11:51:30;;;;;;;3.53;1.83;;;12.50;99.90;;;;;;5038200;27;20706;-69
2021/04/01 11:53:57;;;;;;;3.03;1.80;;;12.70;99.90;;;;;;5051280;27;20189;-69
2021/04/01 11:56:42;;;;;;;3.57;1.90;;;13.10;99.90;;;;;;5028548;27;20189;-69
2021/04/01 11:59:16;;;;;;;4.17;1.90;;;13.00;99.90;;;;;;5042024;27;20192;-69
2021/04/01 12:02:01;;;;;;;3.87;1.63;;;12.40;99.90;;;;;;5048960;27;20257;-69
2021/04/01 12:04:31;;;;;;;2.77;1.67;;;11.90;99.90;;;;;;5044229;27;20194;-68
2021/04/01 12:06:58;;;;;;;3.07;1.60;;;11.80;99.90;;;;;;5033570;27;20184;-69
2021/04/01 12:09:26;;;;;;;2.07;1.63;;;11.80;99.90;;;;;;5053946;27;20212;-69
2021/04/01 12:11:53;;;;;;;2.80;2.10;;;11.80;99.90;;;;;;5066191;27;20224;-68
2021/04/01 12:14:20;;;;;;;6.73;2.17;;;11.80;99.90;;;;;;5055074;27;20222;-68
2021/04/01 12:16:47;;;;;;;4.30;2.07;;;11.70;99.90;;;;;;5023876;27;20272;-68
2021/04/01 12:19:14;;;;;;;4.60;2.17;;;11.70;99.90;;;;;;5033771;27;20279;-69
2021/04/01 12:21:42;;;;;;;3.33;2.00;;;11.90;99.90;;;;;;5049294;27;20193;-68
2021/04/01 12:24:09;;;;;;;2.37;1.33;;;12.30;99.90;;;;;;5038088;27;20227;-69
2021/04/01 12:26:46;;;;;;;3.97;2.23;;;12.40;99.90;;;;;;5061913;27;20212;-69
2021/04/01 12:29:13;;;;;;;4.50;2.20;;;12.70;99.90;;;;;;5045258;27;20191;-68
2021/04/01 12:31:47;;;;;;;3.23;2.00;;;12.70;99.90;;;;;;5045359;27;20207;-69
2021/04/01 12:34:30;;;;;;;5.13;2.07;;;12.60;99.90;;;;;;5025535;28;20250;-70
2021/04/01 12:37:03;;;;;;;2.63;1.60;;;12.10;99.90;;;;;;5032253;27;20195;-68
2021/04/01 12:39:35;;;;;;;4.57;1.90;;;12.10;99.90;;;;;;5048494;27;20196;-68
2021/04/01 12:42:03;;;;;;;4.20;1.90;;;12.00;99.90;;;;;;5039296;27;20632;-68
2021/04/01 12:44:43;;;;;;;3.53;1.83;;;11.90;99.90;;;;;;5044511;27;20197;-68
2021/04/01 12:47:22;;;;;;;4.70;1.97;;;11.90;99.90;;;;;;5025322;27;20902;-68
2021/04/01 12:49:50;;;;;;;3.37;1.63;;;11.70;99.90;;;;;;5033391;27;20330;-68
2021/04/01 12:52:16;;;;;;;2.83;1.73;;;11.70;99.90;;;;;;5022442;27;20222;-70
2021/04/01 12:54:50;;;;;;;6.30;2.20;;;11.70;99.90;;;;;;5048843;27;20192;-69
2021/04/01 12:57:20;;;;;;;3.20;2.00;;;11.60;99.90;;;;;;5034546;27;20187;-70
2021/04/01 12:59:49;;;;;;;2.97;1.90;;;11.60;99.90;;;;;;5046125;27;20215;-70
2021/04/01 13:02:24;;;;;;;2.33;1.80;;;11.50;99.90;;;;;;5044499;27;20921;-70
2021/04/01 13:04:58;;;;;;;4.23;1.80;;;11.60;99.90;;;;;;5026706;27;20688;-69
2021/04/01 13:07:29;;;;;;;3.33;1.73;;;11.50;99.90;;;;;;5037361;27;20747;-69
2021/04/01 13:12:39;;;;;;;5.60;2.00;;;11.40;99.90;;;;;;5050587;27;20219;-69
2021/04/01 13:15:06;;;;;;;4.70;1.93;;;11.50;99.90;;;;;;5038395;27;20290;-67
2021/04/01 13:17:33;;;;;;;2.20;1.60;;;11.30;99.90;;;;;;5031084;27;20192;-67
2021/04/01 13:20:00;;;;;;;2.90;1.87;;;11.10;99.90;;;;;;5015840;28;20200;-67
2021/04/01 13:22:44;;;;;;;4.63;1.90;;;10.90;99.90;;;;;;5020412;28;20219;-69
2021/04/01 13:25:14;;;;;;;3.53;1.67;;;10.70;99.90;;;;;;5020393;28;20184;-68
2021/04/01 13:27:46;;;;;;;4.97;2.27;;;10.60;99.90;;;;;;5036565;27;20200;-69
2021/04/01 13:30:14;;;;;;;4.97;2.30;;;10.40;99.90;;;;;;5030202;27;20304;-68
2021/04/01 13:32:50;;;;;;;5.03;2.07;;;10.40;99.90;;;;;;5046010;27;21196;-68
2021/04/01 13:35:22;;;;;;;3.63;2.17;;;10.30;99.90;;;;;;5026674;27;20253;-70
2021/04/01 13:40:20;;;;;;;6.00;2.23;;;10.20;99.90;;;;;;5036515;27;20804;-68
2021/04/01 13:42:53;;;;;;;3.17;1.90;;;10.20;99.90;;;;;;5040853;27;20556;-66
2021/04/01 13:45:22;;;;;;;3.07;1.77;;;10.10;99.90;;;;;;5015685;27;20229;-70
2021/04/01 13:47:57;;;;;;;2.47;1.90;;;10.10;99.90;;;;;;5038720;27;20200;-70
2021/04/01 13:50:25;;;;;;;4.17;2.17;;;10.10;99.90;;;;;;5015267;27;20650;-69
2021/04/01 13:55:40;;;;;;;5.33;2.13;;;10.30;99.90;;;;;;5060797;27;20235;-69
2021/04/01 14:03:53;;;;;;;5.43;2.40;;;10.20;99.90;;;;;;5033130;27;20299;-68
2021/04/01 14:04:03;;;;;;;4.27;2.30;;;10.10;99.90;;;;;;5038671;27;20216;-66
2021/04/01 14:09:38;;;;;;;5.53;2.20;;;10.10;99.90;;;;;;5042203;27;20518;-67
2021/04/01 14:12:10;;;;;;;3.13;2.13;;;10.10;99.90;;;;;;5028432;27;20192;-68
2021/04/01 14:14:38;;;;;;;5.63;2.50;;;10.10;99.90;;;;;;5033615;28;20292;-68
2021/04/01 14:17:05;;;;;;;6.03;2.67;;;10.00;99.90;;;;;;5045916;27;20238;-67
2021/04/01 14:19:32;;;;;;;6.17;2.40;;;9.90;99.90;;;;;;5022769;27;20268;-67
2021/04/01 14:22:01;;;;;;;3.60;2.17;;;9.90;99.90;;;;;;5017421;27;20208;-68
2021/04/01 14:29:37;;;;;;;4.93;2.50;;;10.10;99.90;;;;;;5029357;28;20220;-68
2021/04/01 14:32:06;;;;;;;4.53;2.50;;;10.10;99.90;;;;;;5022288;28;20637;-70
2021/04/01 14:34:36;;;;;;;4.63;2.80;;;10.10;99.90;;;;;;5028764;27;20291;-68
2021/04/01 14:37:03;;;;;;;6.00;2.20;;;10.30;99.90;;;;;;5049175;28;20691;-67
2021/04/01 14:39:31;;;;;;;7.93;2.53;;;10.20;99.90;;;;;;5042871;27;20203;-68
2021/04/01 14:42:08;;;;;;;4.30;2.13;;;10.00;99.90;;;;;;5036847;27;20357;-68
2021/04/01 14:44:36;;;;;;;5.83;1.77;;;9.80;99.90;;;;;;5064925;28;20201;-66
2021/04/01 14:47:04;;;;;;;5.27;1.57;;;9.40;99.90;;;;;;5036461;28;20196;-66
2021/04/01 14:49:30;;;;;;;5.13;1.80;;;9.20;99.90;;;;;;5040930;27;20212;-70
2021/04/01 14:51:56;;;;;;;5.70;1.50;;;9.10;99.90;;;;;;5025082;27;20281;-67
2021/04/01 14:54:25;;;;;;;5.70;1.50;;;8.90;99.90;;;;;;5037346;28;20831;-67
2021/04/01 14:56:57;;;;;;;5.73;1.70;;;8.90;99.90;;;;;;5037877;27;20539;-67
2021/04/01 14:59:29;;;;;;;4.33;1.60;;;8.90;99.90;;;;;;5066026;27;20189;-69
2021/04/01 15:01:56;;;;;;;8.50;1.80;;;8.80;99.90;;;;;;5051924;27;20197;-70
2021/04/01 15:04:24;;;;;;;4.30;1.50;;;8.80;99.90;;;;;;5046382;27;20197;-70
2021/04/01 15:06:53;;;;;;;5.87;1.87;;;8.90;99.90;;;;;;5044916;27;20200;-68